Edson Airport
CYET : now visible

Airfield :











YOU CAN JOIN US ON...

 
LOGIN :

Register | Disclaimer

   EN    FR    IT 

 









Legend :    VFR   Marginal VFR   IFR   Intensive IFR   Very Intensive IFR
Visi :
Ceiling :
>= 8 km
>= 3000ft
5 to 8 km
1000 to 3000 ft
1500m to 5 km
500 to 1000 ft
800 to 1500m
200 to 500 ft
< 800m
< 200 ft
Symbols :   Thunderstorms  Fog  Heavy snow  Heavy precipitations  Wind > 20 kt






- Airport Elevation : 3041 ft
- IATA code : YET


CYET - Edson

CURRENT METAR :
  • 120200Z AUTO 04005KT 9SM -SN OVC013 M11/M12 A2980 RMK SLP157

EXPIRED METARs :
  • 120141Z AUTO 06005KT 6SM -SN BKN013 OVC028 M11/M12 A2980 RMK SLP158
  • 120138Z AUTO 06005KT 3SM -SN BKN013 OVC030 M11/M12 A2980 RMK SLP160
  • 120104Z AUTO 07003KT 030V110 2 1/4SM -SN BKN011 OVC024 M11/M12 A2982 RMK VIS VRB 1 1/4-3 SLP164
  • 120058Z AUTO VRB02KT 6SM -SN OVC011 M11/M12 A2982 RMK SLP166
  • 120041Z AUTO VRB02KT 3SM -SN BKN011 BKN031 OVC055 M11/M12 A2983 RMK SLP167
  • 120034Z AUTO 06003KT 050V140 2 1/2SM -SN BKN011 BKN016 BKN031 OVC055 M11/M12 A2982 RMK VIS VRB 1 1/4-3 SLP166
  • 120018Z AUTO 07002KT 5SM -SN OVC013 M11/M12 A2982 RMK SLP166
  • 120000Z AUTO 01002KT 8SM -SN OVC013 M11/M11 A2983 RMK SLP168

TAF N/A



MET'MAP, your aeronautical weather chart ! - Copyright ORBIFLY December 2007 - Disclaimer

ORBIFLY MET'MAP TEAM :

Programming & Development : Alexandra Zaïnal
Concept & original design : Baudouin d'Aumeries
Assistance for programming : Marc-Olivier Méhu
Technical & hardware support : Manuel Goepfert

Contact : metmap@orbifly.com




SOURCES & CREDITS :

   NOAA       Earth
Advisory